createdAt,value
2024-03-24T00:00:45.428Z,85.4231
2024-03-24T00:01:50.321Z,86.2104
2024-03-24T00:02:55.106Z,85.0996
2024-03-24T00:04:00.033Z,85.5100
2024-03-24T00:05:04.884Z,84.2390
2024-03-24T00:06:09.666Z,85.5573
2024-03-24T00:07:14.530Z,84.7425
2024-03-24T00:08:19.309Z,84.1688
2024-03-24T00:09:24.205Z,84.3702
2024-03-24T00:10:29.246Z,85.8045
2024-03-24T00:11:33.999Z,84.6510
2024-03-24T00:12:38.778Z,84.3488
2024-03-24T00:13:43.656Z,84.6357
2024-03-24T00:14:48.511Z,85.0568
2024-03-24T00:15:53.254Z,84.5823
2024-03-24T00:16:58.049Z,85.1987
2024-03-24T00:18:02.862Z,83.8956
2024-03-24T00:19:07.748Z,84.2969
2024-03-24T00:20:12.513Z,83.9597
2024-03-24T00:21:17.444Z,84.1962
2024-03-24T00:22:22.391Z,83.6210
2024-03-24T00:23:27.161Z,82.9755
2024-03-24T00:24:31.931Z,83.1128
2024-03-24T00:25:36.745Z,83.2349
2024-03-24T00:26:41.523Z,82.4170
2024-03-24T00:27:46.359Z,82.1698
2024-03-24T00:28:51.197Z,83.9124
2024-03-24T00:29:55.989Z,83.7262
2024-03-24T00:31:00.840Z,84.9653
2024-03-24T00:32:05.738Z,83.1022
2024-03-24T00:33:10.703Z,82.9511
2024-03-24T00:34:15.667Z,82.9664
2024-03-24T00:35:20.416Z,82.9969
2024-03-24T00:36:25.277Z,82.7558
2024-03-24T00:37:30.224Z,83.0930
2024-03-24T00:38:35.206Z,83.4836
2024-03-24T00:39:42.501Z,83.2624
2024-03-24T00:40:50.702Z,82.6307
2024-03-24T00:41:55.515Z,83.9094
2024-03-24T00:43:00.480Z,84.2008
2024-03-24T00:44:05.391Z,83.9902
2024-03-24T00:45:10.167Z,83.6255
2024-03-24T00:46:15.027Z,83.8300
2024-03-24T00:47:19.974Z,84.4709
2024-03-24T00:48:24.736Z,85.2003
2024-03-24T00:49:29.621Z,84.6738
2024-03-24T00:50:34.550Z,84.8936
2024-03-24T00:51:39.309Z,83.0625
2024-03-24T00:52:44.133Z,83.4012
2024-03-24T00:53:48.922Z,83.1952
2024-03-24T00:54:53.740Z,84.0421
2024-03-24T00:55:58.494Z,84.4572
2024-03-24T00:57:03.331Z,83.5645
2024-03-24T00:58:08.136Z,84.2298
2024-03-24T00:59:12.933Z,84.6998
2024-03-24T01:00:17.734Z,85.0843
2024-03-24T01:01:22.512Z,85.0111
2024-03-24T01:02:27.320Z,85.7862
2024-03-24T01:03:32.107Z,85.1209
2024-03-24T01:04:36.858Z,85.0797
2024-03-24T01:05:41.736Z,85.8305
2024-03-24T01:06:46.675Z,85.9098
2024-03-24T01:07:51.460Z,86.0746
2024-03-24T01:08:56.304Z,86.0777
2024-03-24T01:10:01.076Z,85.8900
2024-03-24T01:11:05.896Z,85.9510
2024-03-24T01:12:10.855Z,86.0105
2024-03-24T01:13:15.610Z,86.3935
2024-03-24T01:14:20.464Z,86.8162
2024-03-24T01:15:25.278Z,86.4225
2024-03-24T01:16:30.053Z,87.5715
2024-03-24T01:17:34.847Z,87.2999
2024-03-24T01:18:39.668Z,87.0680
2024-03-24T01:19:44.463Z,86.6682
2024-03-24T01:20:49.317Z,87.0085
2024-03-24T01:21:54.238Z,86.9902
2024-03-24T01:22:58.978Z,87.6081
2024-03-24T01:24:03.854Z,87.6036
2024-03-24T01:25:08.822Z,87.4098
2024-03-24T01:26:13.557Z,87.3976
2024-03-24T01:27:18.382Z,87.6402
2024-03-24T01:28:23.341Z,88.1834
2024-03-24T01:29:28.256Z,87.5486
2024-03-24T01:30:33.029Z,88.0705
2024-03-24T01:31:37.894Z,88.1926
2024-03-24T01:32:42.698Z,88.1972
2024-03-24T01:33:47.499Z,87.4342
2024-03-24T01:34:52.292Z,87.5883
2024-03-24T01:35:57.108Z,87.9866
2024-03-24T01:37:02.081Z,88.3314
2024-03-24T01:38:07.028Z,88.8121
2024-03-24T01:39:11.961Z,89.1005
2024-03-24T01:40:16.735Z,88.8655
2024-03-24T01:41:21.605Z,89.5262
2024-03-24T01:42:26.507Z,89.0730
2024-03-24T01:43:31.305Z,89.1859
2024-03-24T01:44:36.067Z,89.9611
2024-03-24T01:45:40.878Z,88.7892
2024-03-24T01:46:45.744Z,89.2149
2024-03-24T01:47:50.520Z,89.3111
2024-03-24T01:48:55.335Z,90.2174
2024-03-24T01:50:00.232Z,90.0877
2024-03-24T01:51:04.947Z,90.1350
2024-03-24T01:52:09.922Z,90.8522
2024-03-24T01:53:14.853Z,90.8431
2024-03-24T01:54:19.637Z,90.5425
2024-03-24T01:55:24.472Z,90.7118
2024-03-24T01:56:29.283Z,90.9590
2024-03-24T01:57:34.105Z,90.7332
2024-03-24T01:58:38.886Z,91.2840
2024-03-24T01:59:43.668Z,91.5755
2024-03-24T02:00:48.590Z,91.3329
2024-03-24T02:01:53.586Z,91.3619
2024-03-24T02:02:58.520Z,91.2520
2024-03-24T02:04:03.465Z,91.2734
2024-03-24T02:05:08.416Z,91.1910
2024-03-24T02:06:13.199Z,91.6182
2024-03-24T02:07:18.009Z,92.1309
2024-03-24T02:08:22.993Z,92.0012
2024-03-24T02:09:27.958Z,91.7540
2024-03-24T02:10:32.692Z,91.9341
2024-03-24T02:11:37.526Z,92.4407
2024-03-24T02:12:42.499Z,92.6024
2024-03-24T02:13:47.476Z,92.8389
2024-03-24T02:14:52.404Z,92.5338
2024-03-24T02:15:57.201Z,92.3735
2024-03-24T02:17:02.006Z,92.3461
2024-03-24T02:18:07.010Z,92.5093
2024-03-24T02:19:11.827Z,92.7932
2024-03-24T02:20:16.646Z,92.6757
2024-03-24T02:21:21.526Z,92.8756
2024-03-24T02:22:26.288Z,92.9915
2024-03-24T02:23:31.137Z,92.9732
2024-03-24T02:24:36.087Z,93.1701
2024-03-24T02:25:40.874Z,93.2418
2024-03-24T02:26:45.710Z,93.4951
2024-03-24T02:27:50.677Z,93.5576
2024-03-24T02:28:55.548Z,93.5302
2024-03-24T02:30:00.313Z,93.6538
2024-03-24T02:31:05.204Z,93.6553
2024-03-24T02:32:10.114Z,93.7041
2024-03-24T02:33:14.920Z,93.7469
2024-03-24T02:34:19.788Z,94.0444
2024-03-24T02:35:24.674Z,94.1909
2024-03-24T02:36:29.447Z,94.2916
2024-03-24T02:37:34.376Z,94.3511
2024-03-24T02:38:39.124Z,94.3557
2024-03-24T02:39:43.939Z,94.6349
2024-03-24T02:40:49.216Z,94.7173
2024-03-24T02:41:54.053Z,94.8272
2024-03-24T02:42:58.861Z,94.9401
2024-03-24T02:44:03.795Z,94.9599
2024-03-24T02:45:08.755Z,94.9645
2024-03-24T02:46:13.780Z,94.8943
2024-03-24T02:47:18.534Z,94.9081
2024-03-24T02:48:23.296Z,94.9004
2024-03-24T02:49:28.250Z,95.0927
2024-03-24T02:50:33.039Z,95.1568
2024-03-24T02:51:37.855Z,95.1110
2024-03-24T02:52:42.823Z,95.0011
2024-03-24T02:53:47.787Z,95.0835
2024-03-24T02:54:52.719Z,95.0286
2024-03-24T02:55:57.507Z,94.8913
2024-03-24T02:57:02.392Z,94.7890
2024-03-24T02:58:07.360Z,94.6395
2024-03-24T02:59:12.093Z,94.8363
2024-03-24T03:00:16.887Z,94.7082
2024-03-24T03:01:21.857Z,94.7540
2024-03-24T03:02:26.604Z,94.8898
2024-03-24T03:03:31.450Z,95.0820
2024-03-24T03:04:36.215Z,95.0362
2024-03-24T03:05:41.053Z,94.9035
2024-03-24T03:06:45.846Z,94.8165
2024-03-24T03:07:50.659Z,94.6838
2024-03-24T03:08:55.624Z,94.4976
2024-03-24T03:10:00.576Z,94.6700
2024-03-24T03:11:05.502Z,94.7204
2024-03-24T03:12:10.269Z,94.7723
2024-03-24T03:13:15.177Z,94.9416
2024-03-24T03:14:20.075Z,95.1095
2024-03-24T03:15:24.846Z,94.9722
2024-03-24T03:16:29.700Z,94.5937
2024-03-24T03:17:34.644Z,94.1207
2024-03-24T03:18:39.447Z,93.8109
2024-03-24T03:19:44.255Z,93.9574
2024-03-24T03:20:49.200Z,94.0948
2024-03-24T03:21:54.003Z,94.2779
2024-03-24T03:22:58.822Z,94.3267
2024-03-24T03:24:03.607Z,94.4457
2024-03-24T03:25:08.463Z,94.4778
2024-03-24T03:26:13.384Z,94.2992
2024-03-24T03:27:18.323Z,93.9529
2024-03-24T03:28:23.073Z,94.0810
2024-03-24T03:29:27.946Z,94.1680
2024-03-24T03:30:32.869Z,94.2168
2024-03-24T03:31:37.654Z,94.4411
2024-03-24T03:32:42.509Z,94.6471
2024-03-24T03:33:47.445Z,94.6715
2024-03-24T03:34:52.193Z,94.7036
2024-03-24T03:35:57.084Z,94.7478
2024-03-24T03:37:02.003Z,94.9187
2024-03-24T03:38:06.771Z,95.0561
2024-03-24T03:39:11.614Z,95.2621
2024-03-24T03:40:16.557Z,95.5047
2024-03-24T03:41:21.304Z,95.5810
2024-03-24T03:42:26.192Z,95.8053
2024-03-24T03:43:31.114Z,95.7610
2024-03-24T03:44:35.881Z,95.6374
2024-03-24T03:45:40.876Z,95.5718
2024-03-24T03:46:45.689Z,95.6359
2024-03-24T03:47:50.457Z,95.6695
2024-03-24T03:48:55.627Z,95.7412
2024-03-24T03:50:00.591Z,95.8328
2024-03-24T03:51:05.541Z,95.9380
2024-03-24T03:52:10.545Z,96.0204
2024-03-24T03:53:15.465Z,96.0937
2024-03-24T03:54:20.393Z,96.1807
2024-03-24T03:55:25.187Z,96.2737
2024-03-24T03:56:30.075Z,96.3287
2024-03-24T03:57:34.887Z,96.4096
2024-03-24T03:58:39.679Z,96.4691
2024-03-24T03:59:44.555Z,96.4523
2024-03-24T04:00:49.503Z,96.4141
2024-03-24T04:01:54.306Z,96.2631
2024-03-24T04:02:59.137Z,96.0616
2024-03-24T04:04:04.007Z,96.0250
2024-03-24T04:05:08.813Z,96.0128
2024-03-24T04:06:13.685Z,95.9655
2024-03-24T04:07:18.609Z,95.8785
2024-03-24T04:08:23.451Z,95.7931
2024-03-24T04:09:28.254Z,95.7458
2024-03-24T04:10:33.148Z,95.7656
2024-03-24T04:11:37.977Z,95.7931
2024-03-24T04:12:42.708Z,95.8297
2024-03-24T04:13:47.547Z,95.9075
2024-03-24T04:14:52.454Z,95.9442
2024-03-24T04:15:57.372Z,95.9304
2024-03-24T04:17:02.294Z,95.9106
2024-03-24T04:18:07.079Z,95.7977
2024-03-24T04:19:11.941Z,95.6954
2024-03-24T04:20:16.854Z,95.5688
2024-03-24T04:21:21.677Z,95.5047
2024-03-24T04:22:26.523Z,95.3811
2024-03-24T04:23:31.403Z,95.2941
2024-03-24T04:24:36.199Z,95.2056
2024-03-24T04:25:41.000Z,95.0240
2024-03-24T04:26:45.969Z,94.9813
2024-03-24T04:27:50.764Z,95.0286
2024-03-24T04:28:55.628Z,95.0835
2024-03-24T04:30:00.510Z,95.0866
2024-03-24T04:31:05.376Z,95.1797
2024-03-24T04:32:10.151Z,95.2285
2024-03-24T04:33:15.084Z,95.1614
2024-03-24T04:34:19.867Z,95.0546
2024-03-24T04:35:24.780Z,95.0835
2024-03-24T04:36:29.627Z,95.0820
2024-03-24T04:37:34.405Z,95.2117
2024-03-24T04:38:39.296Z,95.2102
2024-03-24T04:39:44.218Z,95.3399
2024-03-24T04:40:49.226Z,95.5123
2024-03-24T04:41:54.187Z,95.6268
2024-03-24T04:42:58.966Z,95.6130
2024-03-24T04:44:03.778Z,95.5535
2024-03-24T04:45:08.568Z,95.5322
2024-03-24T04:46:13.396Z,95.5642
2024-03-24T04:47:18.344Z,95.6741
2024-03-24T04:48:23.314Z,95.7778
2024-03-24T04:49:28.269Z,95.8526
2024-03-24T04:50:33.051Z,95.9747
2024-03-24T04:51:37.864Z,96.0540
2024-03-24T04:52:45.459Z,96.1669
2024-03-24T04:53:50.645Z,96.2509
2024-03-24T04:54:55.696Z,96.3424
2024-03-24T04:56:00.587Z,96.3928
2024-03-24T04:57:05.537Z,96.3684
2024-03-24T04:58:10.317Z,96.4111
2024-03-24T04:59:15.141Z,96.4324
2024-03-24T05:00:20.131Z,96.4874
2024-03-24T05:01:25.066Z,96.4828
2024-03-24T05:02:30.055Z,96.3699
2024-03-24T05:03:35.004Z,96.2905
2024-03-24T05:04:39.944Z,96.1822
2024-03-24T05:05:44.845Z,96.0891
2024-03-24T05:06:49.659Z,96.1349
2024-03-24T05:07:54.505Z,96.1440
2024-03-24T05:08:59.438Z,96.1486
2024-03-24T05:10:04.229Z,96.2921
2024-03-24T05:11:09.076Z,96.3973
2024-03-24T05:12:13.998Z,96.5301
2024-03-24T05:13:18.782Z,96.6903
2024-03-24T05:14:23.642Z,96.8032
2024-03-24T05:15:28.513Z,96.8689
2024-03-24T05:16:33.290Z,96.9375
2024-03-24T05:17:38.214Z,96.9741
2024-03-24T05:18:43.033Z,96.9543
2024-03-24T05:19:47.828Z,96.9085
2024-03-24T05:20:52.766Z,96.8399
2024-03-24T05:21:57.663Z,96.8322
2024-03-24T05:23:02.495Z,96.8170
2024-03-24T05:24:07.250Z,96.8277
2024-03-24T05:25:12.064Z,96.8277
2024-03-24T05:26:16.928Z,96.8902
2024-03-24T05:27:21.889Z,96.9650
2024-03-24T05:28:27.093Z,97.0321
2024-03-24T05:29:35.233Z,97.0504
2024-03-24T05:30:40.025Z,97.0062
2024-03-24T05:31:44.964Z,96.9924
2024-03-24T05:32:49.886Z,96.9924
2024-03-24T05:33:54.859Z,96.9680
2024-03-24T05:34:59.817Z,96.9451
2024-03-24T05:36:04.597Z,96.8948
2024-03-24T05:37:09.402Z,96.9146
2024-03-24T05:38:14.211Z,96.9039
2024-03-24T05:39:18.999Z,96.8872
2024-03-24T05:40:23.990Z,96.7727
2024-03-24T05:41:28.935Z,96.8261
2024-03-24T05:42:33.708Z,96.8536
2024-03-24T05:43:38.510Z,96.8078
2024-03-24T05:44:43.318Z,96.7254
2024-03-24T05:45:48.108Z,96.6720
2024-03-24T05:46:52.909Z,96.5881
2024-03-24T05:47:57.722Z,96.5698
2024-03-24T05:49:02.520Z,96.6201
2024-03-24T05:50:07.325Z,96.6537
2024-03-24T05:51:12.279Z,96.6949
2024-03-24T05:52:19.027Z,96.7437
2024-03-24T05:53:24.978Z,96.7758
2024-03-24T05:54:29.732Z,96.7773
2024-03-24T05:55:34.636Z,96.6659
2024-03-24T05:56:39.413Z,96.6125
2024-03-24T05:57:44.303Z,96.5393
2024-03-24T05:58:49.157Z,96.4752
2024-03-24T05:59:53.942Z,96.3653
2024-03-24T06:00:58.823Z,96.1944
2024-03-24T06:02:03.785Z,96.0403
2024-03-24T06:03:08.546Z,96.0388
2024-03-24T06:04:13.449Z,96.0296
2024-03-24T06:05:18.306Z,95.8236
2024-03-24T06:06:23.087Z,95.7275
2024-03-24T06:07:27.955Z,95.6374
2024-03-24T06:08:32.870Z,95.3674
2024-03-24T06:09:37.653Z,95.2972
2024-03-24T06:10:42.548Z,94.9416
2024-03-24T06:11:47.419Z,94.6212
2024-03-24T06:12:52.187Z,94.4457
2024-03-24T06:13:57.084Z,94.5647
2024-03-24T06:15:01.903Z,94.5983
2024-03-24T06:16:06.670Z,94.2687
2024-03-24T06:17:11.456Z,93.7316
2024-03-24T06:18:16.307Z,93.4310
2024-03-24T06:19:21.110Z,93.4066
2024-03-24T06:20:25.905Z,93.7652
2024-03-24T06:21:30.671Z,93.8888
2024-03-24T06:22:35.486Z,93.8796
2024-03-24T06:23:40.439Z,93.9345
2024-03-24T06:24:45.351Z,93.4295
2024-03-24T06:25:50.139Z,93.0694
2024-03-24T06:26:55.003Z,92.8252
2024-03-24T06:27:59.926Z,91.8914
2024-03-24T06:29:04.745Z,91.4855
2024-03-24T06:30:09.565Z,91.5480
2024-03-24T06:31:14.463Z,91.2184
2024-03-24T06:32:19.267Z,91.4427
2024-03-24T06:33:24.144Z,90.8766
2024-03-24T06:34:29.083Z,91.2093
2024-03-24T06:35:33.835Z,91.2932
2024-03-24T06:36:38.695Z,90.0114
2024-03-24T06:37:43.476Z,89.9702
2024-03-24T06:38:48.285Z,90.3944
2024-03-24T06:39:53.248Z,90.3227
2024-03-24T06:40:58.034Z,90.6783
2024-03-24T06:42:02.835Z,90.8156
2024-03-24T06:43:07.664Z,90.0740
2024-03-24T06:44:12.454Z,90.2892
2024-03-24T06:45:17.407Z,90.0740
2024-03-24T06:46:22.370Z,90.0618
2024-03-24T06:47:27.293Z,88.9540
2024-03-24T06:48:32.091Z,89.2225
2024-03-24T06:49:36.921Z,89.1676
2024-03-24T06:50:41.828Z,88.7251
2024-03-24T06:51:46.660Z,88.1392
2024-03-24T06:52:51.480Z,89.0227
2024-03-24T06:53:56.375Z,89.2592
2024-03-24T06:55:01.182Z,89.2134
2024-03-24T06:56:06.038Z,89.4331
2024-03-24T06:57:10.998Z,90.3120
2024-03-24T06:58:15.821Z,88.8579
2024-03-24T06:59:20.594Z,88.9754
2024-03-24T07:00:25.403Z,89.2378
2024-03-24T07:01:30.199Z,89.5476
2024-03-24T07:02:35.168Z,89.3416
2024-03-24T07:03:40.130Z,89.2927
2024-03-24T07:04:45.092Z,89.9779
2024-03-24T07:05:50.061Z,90.1747
2024-03-24T07:06:55.009Z,89.9519
2024-03-24T07:07:59.969Z,90.0298
2024-03-24T07:09:04.934Z,89.7307
2024-03-24T07:10:09.867Z,89.3462
2024-03-24T07:11:14.641Z,88.9906
2024-03-24T07:12:19.492Z,90.1335
2024-03-24T07:13:24.498Z,89.5659
2024-03-24T07:14:29.215Z,89.4484
2024-03-24T07:15:34.055Z,88.7388
2024-03-24T07:16:38.961Z,88.1148
2024-03-24T07:17:43.736Z,88.5359
2024-03-24T07:18:48.610Z,87.3091
2024-03-24T07:19:53.546Z,88.2582
2024-03-24T07:20:58.306Z,87.8233
2024-03-24T07:22:03.136Z,86.5995
2024-03-24T07:23:08.086Z,86.8299
2024-03-24T07:24:12.862Z,85.2033
2024-03-24T07:25:17.657Z,85.1896
2024-03-24T07:26:24.921Z,85.9632
2024-03-24T07:27:30.230Z,84.6738
2024-03-24T07:28:34.976Z,85.8259
2024-03-24T07:29:39.840Z,85.1209
2024-03-24T07:30:44.789Z,84.7410
2024-03-24T07:31:49.726Z,86.3706
2024-03-24T07:32:54.517Z,86.3752
2024-03-24T07:33:59.337Z,85.7114
2024-03-24T07:35:04.289Z,86.0151
2024-03-24T07:36:09.233Z,86.1280
2024-03-24T07:37:14.023Z,86.1555
2024-03-24T07:38:18.844Z,86.3935
2024-03-24T07:39:23.822Z,85.7481
2024-03-24T07:40:28.767Z,84.7684
2024-03-24T07:41:33.748Z,84.0452
2024-03-24T07:42:39.784Z,84.3839
2024-03-24T07:43:45.546Z,83.8712
2024-03-24T07:44:50.351Z,83.1250
2024-03-24T07:45:55.158Z,83.1586
2024-03-24T07:46:59.922Z,83.9231
2024-03-24T07:48:04.764Z,83.0076
2024-03-24T07:49:09.714Z,84.3580
2024-03-24T07:50:14.481Z,84.4389
2024-03-24T07:51:19.342Z,83.7583
2024-03-24T07:52:24.279Z,83.5706
2024-03-24T07:53:29.027Z,84.0040
2024-03-24T07:54:33.910Z,84.2786
2024-03-24T07:55:38.824Z,82.5528
2024-03-24T07:56:43.589Z,83.4775
2024-03-24T07:57:48.442Z,82.4765
2024-03-24T07:58:53.382Z,83.7247
2024-03-24T07:59:58.266Z,83.5462
2024-03-24T08:01:03.063Z,83.2303
2024-03-24T08:02:07.942Z,82.9252
2024-03-24T08:03:12.843Z,82.9252
2024-03-24T08:04:17.696Z,83.5111
2024-03-24T08:05:22.516Z,84.3061
2024-03-24T08:06:27.412Z,83.0198
2024-03-24T08:07:32.260Z,82.2370
2024-03-24T08:08:37.055Z,81.7288
2024-03-24T08:09:41.846Z,80.5951
2024-03-24T08:10:46.695Z,79.3072
2024-03-24T08:11:51.622Z,78.2681
2024-03-24T08:12:56.405Z,78.3871
2024-03-24T08:14:01.230Z,77.9355
2024-03-24T08:15:06.190Z,77.4731
2024-03-24T08:16:10.956Z,76.4523
2024-03-24T08:17:15.773Z,78.3413
2024-03-24T08:18:20.758Z,77.7340
2024-03-24T08:19:25.565Z,78.5672
2024-03-24T08:20:30.437Z,81.0986
2024-03-24T08:21:35.328Z,78.1735
2024-03-24T08:22:40.120Z,77.3159
2024-03-24T08:23:44.935Z,76.8582
2024-03-24T08:24:49.885Z,78.4527
2024-03-24T08:25:54.712Z,77.8576
2024-03-24T08:26:59.470Z,77.7188
2024-03-24T08:28:04.429Z,78.3154
2024-03-24T08:29:09.206Z,79.3225
2024-03-24T08:30:14.036Z,75.7000
2024-03-24T08:31:18.991Z,75.7595
2024-03-24T08:32:23.957Z,76.2814
2024-03-24T08:33:28.738Z,73.9361
2024-03-24T08:34:33.557Z,72.9427
2024-03-24T08:35:38.480Z,73.8582
2024-03-24T08:36:43.273Z,72.1889
2024-03-24T08:37:48.114Z,73.1823
2024-03-24T08:38:53.058Z,75.2285
2024-03-24T08:39:57.821Z,75.8053
2024-03-24T08:41:02.695Z,76.2676
2024-03-24T08:42:07.582Z,75.7687
2024-03-24T08:43:12.368Z,74.9310
2024-03-24T08:44:17.138Z,74.9294
2024-03-24T08:45:21.954Z,75.0835
2024-03-24T08:46:26.881Z,74.8714
2024-03-24T08:47:31.691Z,76.1776
2024-03-24T08:48:42.043Z,75.2468
2024-03-24T08:49:47.174Z,74.3526
2024-03-24T08:50:52.201Z,74.7021
2024-03-24T08:51:57.067Z,74.0826
2024-03-24T08:53:01.953Z,73.9971
2024-03-24T08:54:06.755Z,76.9924
2024-03-24T08:55:11.673Z,76.6476
2024-03-24T08:56:16.516Z,75.8373
2024-03-24T08:57:21.334Z,76.5988
2024-03-24T08:58:26.180Z,78.0346
2024-03-24T08:59:30.969Z,78.3368
2024-03-24T09:00:35.747Z,77.1603
2024-03-24T09:01:41.345Z,77.8073
2024-03-24T09:02:46.265Z,77.1328
2024-03-24T09:03:51.049Z,77.3068
2024-03-24T09:04:55.945Z,77.6242
2024-03-24T09:06:00.846Z,76.6766
2024-03-24T09:07:05.656Z,78.5290
2024-03-24T09:08:10.410Z,74.5632
2024-03-24T09:09:15.250Z,73.8827
2024-03-24T09:10:20.021Z,76.0266
2024-03-24T09:11:24.805Z,73.3242
2024-03-24T09:12:29.591Z,74.3389
2024-03-24T09:13:34.356Z,73.2769
2024-03-24T09:14:39.309Z,72.4453
2024-03-24T09:15:44.247Z,71.9402
2024-03-24T09:16:49.030Z,71.1589
2024-03-24T09:17:53.865Z,69.8207
2024-03-24T09:18:58.800Z,68.8197
2024-03-24T09:20:03.580Z,69.1539
2024-03-24T09:21:08.695Z,67.1855
2024-03-24T09:22:13.503Z,66.2730
2024-03-24T09:23:18.264Z,67.7653
2024-03-24T09:24:23.074Z,65.9113
2024-03-24T09:25:27.939Z,65.7023
2024-03-24T09:26:32.733Z,65.7099
2024-03-24T09:27:37.531Z,63.2532
2024-03-24T09:28:42.519Z,62.4704
2024-03-24T09:29:47.511Z,60.7980
2024-03-24T09:30:52.437Z,61.0513
2024-03-24T09:31:57.391Z,60.6851
2024-03-24T09:33:02.196Z,59.1562
2024-03-24T09:34:06.973Z,61.0544
2024-03-24T09:35:13.553Z,61.2329
2024-03-24T09:36:18.712Z,58.1018
2024-03-24T09:37:23.535Z,60.5051
2024-03-24T09:38:30.853Z,62.3407
2024-03-24T09:39:37.534Z,63.6149
2024-03-24T09:40:42.334Z,62.1408
2024-03-24T09:41:47.143Z,66.1082
2024-03-24T09:42:52.113Z,66.2608
2024-03-24T09:43:56.883Z,65.1698
2024-03-24T09:45:01.662Z,63.0320
2024-03-24T09:46:06.452Z,61.9562
2024-03-24T09:47:11.314Z,62.9953
2024-03-24T09:48:16.284Z,63.8834
2024-03-24T09:49:21.227Z,64.8127
2024-03-24T09:50:26.000Z,65.6962
2024-03-24T09:51:30.832Z,60.6699
2024-03-24T09:52:35.762Z,61.9074
2024-03-24T09:53:40.560Z,58.4329
2024-03-24T09:54:45.411Z,59.6262
2024-03-24T09:55:50.318Z,59.3149
2024-03-24T09:56:55.108Z,58.1628
2024-03-24T09:58:07.017Z,57.2915
2024-03-24T09:59:10.727Z,58.0331
2024-03-24T10:00:15.546Z,59.8138
2024-03-24T10:01:20.347Z,60.0565
2024-03-24T10:02:25.232Z,55.7229
2024-03-24T10:03:30.003Z,55.0439
2024-03-24T10:04:34.788Z,55.2407
2024-03-24T10:05:39.714Z,56.0845
2024-03-24T10:06:44.500Z,58.2223
2024-03-24T10:07:49.322Z,60.3769
2024-03-24T10:08:54.102Z,61.8341
2024-03-24T10:09:58.996Z,60.3601
2024-03-24T10:11:03.983Z,61.6327
2024-03-24T10:12:08.743Z,63.4348
2024-03-24T10:13:13.565Z,63.6408
2024-03-24T10:14:18.515Z,63.0518
2024-03-24T10:15:23.474Z,62.3636
2024-03-24T10:16:28.485Z,62.7115
2024-03-24T10:17:33.387Z,64.1917
2024-03-24T10:18:38.373Z,63.9338
2024-03-24T10:19:43.277Z,64.2725
2024-03-24T10:20:48.055Z,64.9226
2024-03-24T10:21:52.941Z,66.7872
2024-03-24T10:22:57.843Z,67.0573
2024-03-24T10:24:02.704Z,70.0694
2024-03-24T10:25:07.491Z,69.9138
2024-03-24T10:26:12.261Z,70.8431
2024-03-24T10:27:17.091Z,71.9554
2024-03-24T10:28:22.036Z,72.7230
2024-03-24T10:29:26.967Z,72.1691
2024-03-24T10:30:31.765Z,72.3217
2024-03-24T10:31:36.597Z,73.6080
2024-03-24T10:32:41.525Z,72.8756
2024-03-24T10:33:46.316Z,73.3837
2024-03-24T10:34:51.162Z,71.3268
2024-03-24T10:35:56.111Z,68.6183
2024-03-24T10:37:00.909Z,63.0274
2024-03-24T10:38:05.711Z,65.3864
2024-03-24T10:39:10.669Z,63.9155
2024-03-24T10:40:15.424Z,63.1006
2024-03-24T10:41:20.209Z,65.5787
2024-03-24T10:42:25.041Z,61.2375
2024-03-24T10:43:29.879Z,58.8525
2024-03-24T10:44:34.664Z,61.3153
2024-03-24T10:45:39.477Z,61.0590
2024-03-24T10:46:44.431Z,64.3229
2024-03-24T10:47:49.230Z,60.3906
2024-03-24T10:48:54.046Z,62.3453
2024-03-24T10:49:58.999Z,63.2883
2024-03-24T10:51:03.794Z,61.3443
2024-03-24T10:52:08.681Z,57.2061
2024-03-24T10:53:13.446Z,58.6877
2024-03-24T10:54:18.222Z,57.3190
2024-03-24T10:55:23.154Z,55.5856
2024-03-24T10:56:28.135Z,58.6023
2024-03-24T10:57:32.917Z,54.6731
2024-03-24T10:58:37.711Z,52.4117
2024-03-24T10:59:42.675Z,58.4970
2024-03-24T11:00:47.454Z,60.8255
2024-03-24T11:01:52.290Z,63.8117
2024-03-24T11:02:57.211Z,65.8534
2024-03-24T11:04:02.014Z,67.7531
2024-03-24T11:05:06.826Z,70.1045
2024-03-24T11:06:14.769Z,71.7342
2024-03-24T11:07:20.894Z,73.6126
2024-03-24T11:08:25.810Z,75.8328
2024-03-24T11:09:30.607Z,77.2839
2024-03-24T11:10:35.461Z,80.5631
2024-03-24T11:11:40.365Z,80.7187
2024-03-24T11:12:45.140Z,83.6484
2024-03-24T11:13:50.016Z,84.7044
2024-03-24T11:14:54.943Z,86.2928
2024-03-24T11:15:59.705Z,85.3925
2024-03-24T11:17:04.596Z,85.1499
2024-03-24T11:18:09.499Z,84.1108
2024-03-24T11:19:14.282Z,84.3198
2024-03-24T11:20:19.134Z,82.7771
2024-03-24T11:21:24.086Z,81.0971
2024-03-24T11:22:28.869Z,78.3108
2024-03-24T11:23:33.707Z,77.9248
2024-03-24T11:24:38.610Z,79.4171
2024-03-24T11:25:43.452Z,76.8627
2024-03-24T11:26:48.279Z,76.9177
2024-03-24T11:27:53.242Z,77.7050
2024-03-24T11:28:58.184Z,75.8480
2024-03-24T11:30:03.179Z,78.4161
2024-03-24T11:31:08.117Z,72.1660
2024-03-24T11:32:13.131Z,72.0089
2024-03-24T11:33:18.013Z,73.5897
2024-03-24T11:34:22.956Z,72.8618
2024-03-24T11:35:27.743Z,75.1827
2024-03-24T11:36:32.650Z,76.4965
2024-03-24T11:37:37.616Z,76.8261
2024-03-24T11:38:42.403Z,75.8114
2024-03-24T11:39:47.191Z,70.3197
2024-03-24T11:40:53.486Z,71.5663
2024-03-24T11:41:58.415Z,70.5074
2024-03-24T11:43:03.378Z,66.8650
2024-03-24T11:44:08.295Z,67.0253
2024-03-24T11:45:13.278Z,63.9933
2024-03-24T11:46:18.055Z,63.7644
2024-03-24T11:47:22.898Z,62.3774
2024-03-24T11:48:27.807Z,63.9765
2024-03-24T11:49:32.595Z,63.8788
2024-03-24T11:50:37.445Z,63.4455
2024-03-24T11:51:42.384Z,60.8820
2024-03-24T11:52:49.362Z,62.4521
2024-03-24T11:53:55.817Z,62.3423
2024-03-24T11:55:00.642Z,61.2024
2024-03-24T11:56:05.441Z,63.6194
2024-03-24T11:57:10.400Z,59.6597
2024-03-24T11:58:15.225Z,58.8800
2024-03-24T11:59:19.998Z,58.8800
2024-03-24T12:00:24.962Z,58.6694
2024-03-24T12:01:29.927Z,59.0906
2024-03-24T12:02:34.876Z,62.2309
2024-03-24T12:03:39.849Z,61.2619
2024-03-24T12:04:44.742Z,62.3148
2024-03-24T12:05:49.552Z,63.0777
2024-03-24T12:06:54.418Z,62.6535
2024-03-24T12:07:59.325Z,64.6342
2024-03-24T12:09:04.133Z,63.1205
2024-03-24T12:10:08.951Z,63.2395
2024-03-24T12:11:13.842Z,63.0823
2024-03-24T12:12:18.657Z,61.7975
2024-03-24T12:13:23.519Z,61.2665
2024-03-24T12:14:28.403Z,61.3993
2024-03-24T12:15:33.221Z,59.4430
2024-03-24T12:16:38.080Z,60.3128
2024-03-24T12:17:42.994Z,61.1780
2024-03-24T12:18:47.790Z,58.5748
2024-03-24T12:19:52.541Z,60.0885
2024-03-24T12:20:57.339Z,57.2244
2024-03-24T12:22:02.237Z,53.9956
2024-03-24T12:23:07.199Z,54.1146
2024-03-24T12:24:12.097Z,54.6700
2024-03-24T12:25:16.914Z,55.3018
2024-03-24T12:26:21.742Z,57.4289
2024-03-24T12:27:26.663Z,58.5504
2024-03-24T12:28:31.608Z,55.4620
2024-03-24T12:29:36.405Z,54.2840
2024-03-24T12:30:41.216Z,53.0495
2024-03-24T12:31:46.043Z,53.9773
2024-03-24T12:32:50.881Z,53.0709
2024-03-24T12:33:55.780Z,54.5907
2024-03-24T12:35:00.575Z,57.6684
2024-03-24T12:36:05.430Z,57.7096
2024-03-24T12:37:10.365Z,58.1384
2024-03-24T12:38:15.183Z,57.9736
2024-03-24T12:39:20.005Z,57.8958
2024-03-24T12:40:24.957Z,57.9278
2024-03-24T12:41:29.923Z,59.9786
2024-03-24T12:42:34.865Z,60.5371
2024-03-24T12:43:39.841Z,59.8642
2024-03-24T12:44:44.791Z,58.9822
2024-03-24T12:45:49.767Z,59.0417
2024-03-24T12:46:54.710Z,55.2453
2024-03-24T12:47:59.506Z,52.9793
2024-03-24T12:49:04.325Z,52.5414
2024-03-24T12:50:17.641Z,53.0022
2024-03-24T12:51:19.960Z,54.2992
2024-03-24T12:52:24.776Z,55.3338
2024-03-24T12:53:29.596Z,52.0333
2024-03-24T12:54:34.491Z,52.0455
2024-03-24T12:55:39.308Z,52.3613
2024-03-24T12:56:44.139Z,51.5068
2024-03-24T12:57:49.092Z,53.8460
2024-03-24T12:58:56.242Z,53.2555
2024-03-24T13:00:02.874Z,53.0068
2024-03-24T13:01:07.640Z,49.7627
2024-03-24T13:02:12.487Z,49.3675
2024-03-24T13:03:17.339Z,49.7658
2024-03-24T13:04:22.123Z,54.8302
2024-03-24T13:05:27.026Z,49.2638